Strona główna
METAR-TAF:

METAR-TAF

Lotnisko :

Crawfordsville, Indiana, Stany Zjednoczone

Szerokość geograficzna: 39-58-34N, Długość geograficzna: 086-55-09W, wysokość: 244 m

Aktualna obserwacja pogody

Raport powstał 16 minut temu, godzina 16:35 UTC
Wiatr 8 kt od południowo-południowy zachód
Temperatura 30°C
Wilgotność 75%
Ciśnienie 1015 hPa
Widzialność: 16.1 km
Rozproszone chmury na wysokości 2500 ft

METAR: KCFJ 191635Z AUTO 21008KT 10SM SCT025 30/25 A2996 RMK AO2 T03010253

czas: 12:51 (16:51 UTC)


TAF: brakujący

Obserwacja i prognoza pogody dla ponad 4000 lotnisk (raport METAR i TAF).

Dostępne stacje oznaczono żółtymi i czerwonymi punktami na mapie.

Najedź kursorem aby zobaczyć nazwę stacji.

Kliknij aby zobaczyć obserwacje i prognozy pogody.

Aby zmienić mapę: kliknij na zielony przycisk z czarnym krzyżykiem, aby powiększyć; na zielony przycisk z myślnikiem, aby pomniejszyć; na zielone strzałki, aby przejść do map sąsiednich.


METAR-TAF: